Morning Lady — 3FKC3 — position and weather

sailwx.info

Track history (hours):
 
Tides and Currents Weather Stations Pressure Air Temp Water Temp Dewpoint Dewpoint Depression Visibility Wind Speed Wind Dir Waves Ship Positions

Morning Lady

Last reported at 2016-Sep-29 00:34 UTC. Time now 2016-Sep-29 01:39 UTC.
Position N 49°33' W 000°13'.

Length 234 m; draft 9.3 m.

Type: Ship. MMSI: 356473000.

Date/timePositionNaut miles runAvg speedWind from/ knotsBaromVisibWave heightAir tempDewpointWater temp
2016-Sep-29 00:34N 49°33' W 000°13'3511.6
2016-Sep-28 21:34N 49°47' W 001°02'2210.9
2016-Sep-28 19:34N 49°55' W 001°33'4916.2
2016-Sep-28 16:31N 49°48' W 002°49'1616.7
2016-Sep-28 15:33N 49°41' W 003°11'5016.6
2016-Sep-28 12:33N 49°17' W 004°18'6115.2
2016-Sep-28 08:33N 48°45' W 005°37'7314.6
2016-Sep-28 03:33N 47°40' W 006°30'1615.6
2016-Sep-28 02:33N 47°27' W 006°42'1715.8
2016-Sep-28 01:29N 47°12' W 006°52'3315.8
2016-Sep-27 23:23N 46°42' W 007°14'47514.9
2016-Sep-26 15:33N 39°01' W 009°51'2813.9
2016-Sep-26 13:33N 38°33' W 009°50'2813.9
2016-Sep-26 11:33N 38°06' W 009°41'4814.2
2016-Sep-26 08:11N 37°20' W 009°27'7713.2
2016-Sep-26 02:22N 36°29' W 008°15'1316.0
2016-Sep-26 01:33N 36°25' W 007°60'25215.4
2016-Sep-25 09:13N 36°22' W 002°46'2615.8
2016-Sep-25 07:33N 36°26' W 002°14'11215.9
2016-Sep-25 00:29N 36°50' E 000°03'3316.2
2016-Sep-24 22:27N 36°58' E 000°43'63417.2
2016-Sep-23 09:33N 36°32' E 013°54'47416.3
2016-Sep-22 04:33N 37°30' E 023°43'1717.6
2016-Sep-22 03:33N 37°47' E 023°38'10 3.2
2016-Sep-22 00:30N 37°57' E 023°36'0 0.0
2016-Sep-21 23:33N 37°57' E 023°36'0 0.0
2016-Sep-21 22:33N 37°57' E 023°36'0 0.0
2016-Sep-21 19:33N 37°57' E 023°36'0 0.0
2016-Sep-21 16:33N 37°57' E 023°36'4 0.6
2016-Sep-21 09:34N 37°53' E 023°38'1514.5
2016-Sep-21 08:33N 37°40' E 023°46'3812.6
2016-Sep-21 05:33N 37°52' E 024°32'28013.3
2016-Sep-20 08:34N 40°45' E 029°18'1311.7
2016-Sep-20 07:27N 40°45' E 029°35'  
Track history (hours):
 
Tides and Currents Weather Stations Pressure Air Temp Water Temp Dewpoint Dewpoint Depression Visibility Wind Speed Wind Dir Waves Ship Positions

Morning Lady

Last reported at 2016-Sep-29 00:34 UTC. Time now 2016-Sep-29 01:39 UTC.
Position N 49°33' W 000°13'.

Length 234 m; draft 9.3 m.

Type: Ship. MMSI: 356473000.

Date/timePositionNaut miles runAvg speedWind from/ knotsBaromVisibWave heightAir tempDewpointWater temp
2016-Sep-29 00:34N 49°33' W 000°13'3511.6
2016-Sep-28 21:34N 49°47' W 001°02'2210.9
2016-Sep-28 19:34N 49°55' W 001°33'4916.2
2016-Sep-28 16:31N 49°48' W 002°49'1616.7
2016-Sep-28 15:33N 49°41' W 003°11'5016.6
2016-Sep-28 12:33N 49°17' W 004°18'6115.2
2016-Sep-28 08:33N 48°45' W 005°37'7314.6
2016-Sep-28 03:33N 47°40' W 006°30'1615.6
2016-Sep-28 02:33N 47°27' W 006°42'1715.8
2016-Sep-28 01:29N 47°12' W 006°52'3315.8
2016-Sep-27 23:23N 46°42' W 007°14'47514.9
2016-Sep-26 15:33N 39°01' W 009°51'2813.9
2016-Sep-26 13:33N 38°33' W 009°50'2813.9
2016-Sep-26 11:33N 38°06' W 009°41'4814.2
2016-Sep-26 08:11N 37°20' W 009°27'7713.2
2016-Sep-26 02:22N 36°29' W 008°15'1316.0
2016-Sep-26 01:33N 36°25' W 007°60'25215.4
2016-Sep-25 09:13N 36°22' W 002°46'2615.8
2016-Sep-25 07:33N 36°26' W 002°14'11215.9
2016-Sep-25 00:29N 36°50' E 000°03'3316.2
2016-Sep-24 22:27N 36°58' E 000°43'63417.2
2016-Sep-23 09:33N 36°32' E 013°54'47416.3
2016-Sep-22 04:33N 37°30' E 023°43'1717.6
2016-Sep-22 03:33N 37°47' E 023°38'10 3.2
2016-Sep-22 00:30N 37°57' E 023°36'0 0.0
2016-Sep-21 23:33N 37°57' E 023°36'0 0.0
2016-Sep-21 22:33N 37°57' E 023°36'0 0.0
2016-Sep-21 19:33N 37°57' E 023°36'0 0.0
2016-Sep-21 16:33N 37°57' E 023°36'4 0.6
2016-Sep-21 09:34N 37°53' E 023°38'1514.5
2016-Sep-21 08:33N 37°40' E 023°46'3812.6
2016-Sep-21 05:33N 37°52' E 024°32'28013.3
2016-Sep-20 08:34N 40°45' E 029°18'1311.7
2016-Sep-20 07:27N 40°45' E 029°35'  

Dump ship's entire track history